createdAt,value
2023-10-18T00:01:56.013Z,72.30
2023-10-18T00:04:22.858Z,78.50
2023-10-18T00:06:50.179Z,71.60
2023-10-18T00:09:16.913Z,73.50
2023-10-18T00:11:43.556Z,78.40
2023-10-18T00:14:10.610Z,76.50
2023-10-18T00:16:37.382Z,81.70
2023-10-18T00:19:04.383Z,88.20
2023-10-18T00:21:31.755Z,96.70
2023-10-18T00:23:58.534Z,93.50
2023-10-18T00:26:25.505Z,91.80
2023-10-18T00:28:52.542Z,87.20
2023-10-18T00:31:19.801Z,92.40
2023-10-18T00:33:46.651Z,82.30
2023-10-18T00:36:15.004Z,80.80
2023-10-18T00:38:41.906Z,72.30
2023-10-18T00:41:09.250Z,67.50
2023-10-18T00:43:36.083Z,74.10
2023-10-18T00:46:03.284Z,82.90
2023-10-18T00:48:30.343Z,113.70
2023-10-18T00:50:59.824Z,109.90
2023-10-18T00:53:28.645Z,98.20
2023-10-18T00:55:56.731Z,85.70
2023-10-18T00:58:25.195Z,84.00
2023-10-18T01:00:53.493Z,83.60
2023-10-18T01:03:20.724Z,84.30
2023-10-18T01:06:01.357Z,76.80
2023-10-18T01:08:29.889Z,77.90
2023-10-18T01:10:58.102Z,84.90
2023-10-18T01:13:24.781Z,83.50
2023-10-18T01:15:51.686Z,123.50
2023-10-18T01:18:18.690Z,138.90
2023-10-18T01:20:45.435Z,92.70
2023-10-18T01:23:12.092Z,87.90
2023-10-18T01:25:38.836Z,89.60
2023-10-18T01:28:05.719Z,83.50
2023-10-18T01:30:33.319Z,86.50
2023-10-18T01:33:01.956Z,81.30
2023-10-18T01:35:28.901Z,79.80
2023-10-18T01:37:55.585Z,81.40
2023-10-18T01:40:22.501Z,83.20
2023-10-18T01:42:53.475Z,78.60
2023-10-18T01:45:20.200Z,72.60
2023-10-18T01:47:53.446Z,64.10
2023-10-18T01:50:21.942Z,78.70
2023-10-18T01:52:48.741Z,67.20
2023-10-18T01:55:15.502Z,65.30
2023-10-18T01:57:43.092Z,64.80
2023-10-18T02:00:10.522Z,65.60
2023-10-18T02:02:37.219Z,65.80
2023-10-18T02:05:05.005Z,68.60
2023-10-18T02:07:31.777Z,63.00
2023-10-18T02:09:58.641Z,71.70
2023-10-18T02:12:26.201Z,64.30
2023-10-18T02:14:53.258Z,68.20
2023-10-18T02:17:20.819Z,74.40
2023-10-18T02:19:48.902Z,79.60
2023-10-18T02:22:16.700Z,68.50
2023-10-18T02:24:44.065Z,71.30
2023-10-18T02:27:11.289Z,59.70
2023-10-18T02:29:38.341Z,63.80
2023-10-18T02:32:05.209Z,64.90
2023-10-18T02:34:32.075Z,74.30
2023-10-18T02:36:59.128Z,50.00
2023-10-18T02:39:26.047Z,53.20
2023-10-18T02:41:53.564Z,53.90
2023-10-18T02:44:20.350Z,61.20
2023-10-18T02:46:47.098Z,61.40
2023-10-18T02:49:14.007Z,60.80
2023-10-18T02:51:40.839Z,60.40
2023-10-18T02:54:07.762Z,67.70
2023-10-18T02:56:35.434Z,71.80
2023-10-18T02:59:02.183Z,64.20
2023-10-18T03:01:28.960Z,69.00
2023-10-18T03:03:56.063Z,65.90
2023-10-18T03:06:23.443Z,64.70
2023-10-18T03:08:50.094Z,67.00
2023-10-18T03:11:17.457Z,64.00
2023-10-18T03:13:44.418Z,62.90
2023-10-18T03:16:11.417Z,65.70
2023-10-18T03:18:38.495Z,60.60
2023-10-18T03:21:05.515Z,67.30
2023-10-18T03:23:32.217Z,69.10
2023-10-18T03:26:02.961Z,72.40
2023-10-18T03:28:29.916Z,67.20
2023-10-18T03:30:56.638Z,68.90
2023-10-18T03:33:23.517Z,65.40
2023-10-18T03:36:10.734Z,63.60
2023-10-18T03:41:08.233Z,67.30
2023-10-18T03:43:35.186Z,68.40
2023-10-18T03:46:06.129Z,59.20
2023-10-18T03:48:32.871Z,69.10
2023-10-18T03:50:59.615Z,65.20
2023-10-18T03:53:26.668Z,73.10
2023-10-18T03:55:53.314Z,70.30
2023-10-18T03:58:20.087Z,73.00
2023-10-18T04:00:46.804Z,68.20
2023-10-18T04:03:14.281Z,77.50
2023-10-18T04:05:42.244Z,78.50
2023-10-18T04:08:13.913Z,72.10
2023-10-18T04:10:41.740Z,76.30
2023-10-18T04:13:09.012Z,72.80
2023-10-18T04:15:35.685Z,75.00
2023-10-18T04:18:02.476Z,84.40
2023-10-18T04:20:29.616Z,78.50
2023-10-18T04:22:56.335Z,72.90
2023-10-18T04:25:23.217Z,78.70
2023-10-18T04:27:50.050Z,71.00
2023-10-18T04:30:16.873Z,69.00
2023-10-18T04:32:44.058Z,65.80
2023-10-18T04:35:10.892Z,63.70
2023-10-18T04:37:37.741Z,69.80
2023-10-18T04:40:05.016Z,74.90
2023-10-18T04:42:31.738Z,66.90
2023-10-18T04:44:58.450Z,60.20
2023-10-18T04:47:25.313Z,66.20
2023-10-18T04:49:52.077Z,61.00
2023-10-18T04:52:18.995Z,59.40
2023-10-18T04:54:45.803Z,65.90
2023-10-18T04:57:12.872Z,171.00
2023-10-18T04:59:39.984Z,87.00
2023-10-18T05:02:06.739Z,75.50
2023-10-18T05:04:34.401Z,75.70
2023-10-18T05:07:06.164Z,90.50
2023-10-18T05:09:34.449Z,90.50
2023-10-18T05:12:03.495Z,90.00
2023-10-18T05:14:39.090Z,86.20
2023-10-18T05:17:14.591Z,89.20
2023-10-18T05:19:41.521Z,84.10
2023-10-18T05:22:10.009Z,76.30
2023-10-18T05:24:40.031Z,83.70
2023-10-18T05:27:06.890Z,78.10
2023-10-18T05:29:33.843Z,77.50
2023-10-18T05:32:00.493Z,73.90
2023-10-18T05:34:27.269Z,73.50
2023-10-18T05:36:54.510Z,69.90
2023-10-18T05:39:21.332Z,80.80
2023-10-18T05:41:48.349Z,79.40
2023-10-18T05:44:15.147Z,84.30
2023-10-18T05:46:42.331Z,70.20
2023-10-18T05:49:09.665Z,65.20
2023-10-18T05:51:39.021Z,65.20
2023-10-18T05:54:07.059Z,66.90
2023-10-18T05:56:34.530Z,63.30
2023-10-18T05:59:03.628Z,61.40
2023-10-18T06:01:30.359Z,51.90
2023-10-18T06:03:57.275Z,46.40
2023-10-18T06:06:24.133Z,42.70
2023-10-18T06:08:50.779Z,42.20
2023-10-18T06:11:17.529Z,44.00
2023-10-18T06:13:46.732Z,39.50
2023-10-18T06:16:13.598Z,38.60
2023-10-18T06:18:40.463Z,36.10
2023-10-18T06:21:08.217Z,34.20
2023-10-18T06:23:35.271Z,34.50
2023-10-18T06:26:02.114Z,37.10
2023-10-18T06:28:28.835Z,34.20
2023-10-18T06:30:56.432Z,31.50
2023-10-18T06:33:23.902Z,31.50
2023-10-18T06:35:51.473Z,29.50
2023-10-18T06:38:25.755Z,31.80
2023-10-18T06:41:04.439Z,30.40
2023-10-18T06:43:33.881Z,34.90
2023-10-18T06:46:00.925Z,36.30
2023-10-18T06:48:27.612Z,28.90
2023-10-18T06:50:54.416Z,33.00
2023-10-18T06:53:21.570Z,33.50
2023-10-18T06:55:48.363Z,27.40
2023-10-18T06:58:15.287Z,26.60
2023-10-18T07:00:43.333Z,22.90
2023-10-18T07:03:11.399Z,19.50
2023-10-18T07:05:38.057Z,20.70
2023-10-18T07:08:05.817Z,16.60
2023-10-18T07:10:32.347Z,20.10
2023-10-18T07:12:59.051Z,19.30
2023-10-18T07:15:25.786Z,19.60
2023-10-18T07:17:52.351Z,16.80
2023-10-18T07:20:19.169Z,19.60
2023-10-18T07:22:46.011Z,26.60
2023-10-18T07:25:13.003Z,19.80
2023-10-18T07:27:39.941Z,18.60
2023-10-18T07:30:07.879Z,20.00
2023-10-18T07:32:34.591Z,18.90
2023-10-18T07:35:01.928Z,19.00
2023-10-18T07:37:30.751Z,21.90
2023-10-18T07:39:57.911Z,19.10
2023-10-18T07:42:25.461Z,24.20
2023-10-18T07:44:52.107Z,23.80
2023-10-18T07:47:18.747Z,19.10
2023-10-18T07:49:45.544Z,21.10
2023-10-18T07:52:13.221Z,14.70
2023-10-18T07:54:40.021Z,16.90
2023-10-18T07:57:07.223Z,17.60
2023-10-18T07:59:34.299Z,13.80
2023-10-18T08:02:03.992Z,16.10
2023-10-18T08:04:31.357Z,16.30
2023-10-18T08:06:58.626Z,16.00
2023-10-18T08:09:25.457Z,16.50
2023-10-18T08:11:52.261Z,15.10
2023-10-18T08:14:18.802Z,18.80
2023-10-18T08:16:45.570Z,14.90
2023-10-18T08:19:12.285Z,18.70
2023-10-18T08:21:39.384Z,16.60
2023-10-18T08:24:06.946Z,15.30
2023-10-18T08:26:33.613Z,18.10
2023-10-18T08:29:00.154Z,17.90
2023-10-18T08:31:27.355Z,16.40
2023-10-18T08:33:54.487Z,18.90
2023-10-18T08:36:21.091Z,20.00
2023-10-18T08:38:47.997Z,20.60
2023-10-18T08:41:15.881Z,18.40
2023-10-18T08:44:02.686Z,16.00
2023-10-18T08:46:29.552Z,16.10
2023-10-18T08:48:57.013Z,17.90
2023-10-18T08:51:26.148Z,22.20
2023-10-18T08:53:55.860Z,17.10
2023-10-18T08:56:25.326Z,21.20
2023-10-18T08:58:55.254Z,16.90
2023-10-18T09:01:22.043Z,17.50
2023-10-18T09:03:49.067Z,17.10
2023-10-18T09:06:16.209Z,14.00
2023-10-18T09:08:43.457Z,16.10
2023-10-18T09:11:13.927Z,16.00
2023-10-18T09:13:40.895Z,18.60
2023-10-18T09:16:07.818Z,19.00
2023-10-18T09:18:35.003Z,16.90
2023-10-18T09:21:02.233Z,17.70
2023-10-18T09:23:29.183Z,15.10
2023-10-18T09:26:00.239Z,14.00
2023-10-18T09:28:27.388Z,14.10
2023-10-18T09:30:54.391Z,13.70
2023-10-18T09:33:21.917Z,16.80
2023-10-18T09:35:48.771Z,12.30
2023-10-18T09:38:15.526Z,12.70
2023-10-18T09:40:42.359Z,12.40
2023-10-18T09:43:09.118Z,9.30
2023-10-18T09:45:35.857Z,13.70
2023-10-18T09:48:03.210Z,12.40
2023-10-18T09:50:30.478Z,14.70
2023-10-18T09:52:58.353Z,8.70
2023-10-18T09:55:29.550Z,9.80
2023-10-18T09:57:57.012Z,10.90
2023-10-18T10:00:24.159Z,10.20
2023-10-18T10:02:51.205Z,8.30
2023-10-18T10:05:18.079Z,8.90
2023-10-18T10:07:47.470Z,8.00
2023-10-18T10:12:42.883Z,7.20
2023-10-18T10:15:10.057Z,8.30
2023-10-18T10:17:38.205Z,5.90
2023-10-18T10:20:08.252Z,6.80
2023-10-18T10:22:36.286Z,7.60
2023-10-18T10:25:05.148Z,5.60
2023-10-18T10:27:37.724Z,5.90
2023-10-18T10:30:06.800Z,6.30
2023-10-18T10:32:33.604Z,6.90
2023-10-18T10:35:14.912Z,6.70
2023-10-18T10:37:48.631Z,6.10
2023-10-18T10:40:36.566Z,5.70
2023-10-18T10:43:05.737Z,6.50
2023-10-18T10:45:42.929Z,5.80
2023-10-18T10:48:18.599Z,5.40
2023-10-18T10:51:00.045Z,6.10
2023-10-18T10:53:35.333Z,5.30
2023-10-18T10:56:25.930Z,6.70
2023-10-18T10:59:00.044Z,7.60
2023-10-18T11:01:42.403Z,4.80
2023-10-18T11:04:22.352Z,6.00
2023-10-18T11:06:49.248Z,6.00
2023-10-18T11:09:16.051Z,5.90
2023-10-18T11:11:46.214Z,4.60
2023-10-18T11:14:13.637Z,5.20
2023-10-18T11:16:40.359Z,5.00
2023-10-18T11:19:07.991Z,5.10
2023-10-18T11:21:35.670Z,6.80
2023-10-18T11:24:02.406Z,5.80
2023-10-18T11:26:29.507Z,5.40
2023-10-18T11:28:56.658Z,4.90
2023-10-18T11:31:25.034Z,5.10
2023-10-18T11:33:51.881Z,8.20
2023-10-18T11:36:18.694Z,7.30
2023-10-18T11:38:47.028Z,6.30
2023-10-18T11:41:14.028Z,6.20
2023-10-18T11:43:40.847Z,4.00
2023-10-18T11:46:08.661Z,3.40
2023-10-18T11:48:37.145Z,3.60
2023-10-18T11:51:03.884Z,3.30
2023-10-18T11:53:30.636Z,4.50
2023-10-18T11:56:05.213Z,5.00
2023-10-18T11:58:35.380Z,3.70
2023-10-18T12:01:17.179Z,3.90
2023-10-18T12:03:44.544Z,4.40
2023-10-18T12:06:11.385Z,3.60
2023-10-18T12:08:45.172Z,4.20
2023-10-18T12:11:11.866Z,6.10
2023-10-18T12:13:38.628Z,4.70
2023-10-18T12:16:05.743Z,4.60
2023-10-18T12:18:32.429Z,4.70
2023-10-18T12:20:59.181Z,3.60
2023-10-18T12:23:25.924Z,4.40
2023-10-18T12:25:52.571Z,4.80
2023-10-18T12:28:19.664Z,5.40
2023-10-18T12:30:48.232Z,4.90
2023-10-18T12:33:15.135Z,4.90
2023-10-18T12:35:42.221Z,7.80
2023-10-18T12:38:09.009Z,5.00
2023-10-18T12:40:35.947Z,6.90
2023-10-18T12:43:02.775Z,4.50
2023-10-18T12:45:29.531Z,3.70
2023-10-18T12:47:56.627Z,5.90
2023-10-18T12:50:23.331Z,6.40
2023-10-18T12:52:50.127Z,5.80
2023-10-18T12:55:17.201Z,5.60
2023-10-18T12:57:44.131Z,5.30
2023-10-18T13:00:11.653Z,5.50
2023-10-18T13:02:38.405Z,5.60
2023-10-18T13:05:08.077Z,6.50
2023-10-18T13:07:36.308Z,4.80
2023-10-18T13:10:03.049Z,5.20
2023-10-18T13:12:32.398Z,6.00
2023-10-18T13:14:59.221Z,5.70
2023-10-18T13:17:26.189Z,5.90
2023-10-18T13:19:52.973Z,5.70
2023-10-18T13:22:19.736Z,5.60
2023-10-18T13:24:47.161Z,6.00
2023-10-18T13:27:13.991Z,5.00
2023-10-18T13:29:40.760Z,5.00
2023-10-18T13:32:07.438Z,4.80
2023-10-18T13:34:34.456Z,5.80
2023-10-18T13:37:01.266Z,6.50
2023-10-18T13:39:28.249Z,4.20
2023-10-18T13:41:56.726Z,6.90
2023-10-18T13:44:24.855Z,5.90
2023-10-18T13:47:01.865Z,9.30
2023-10-18T13:49:35.882Z,4.60
2023-10-18T13:52:02.615Z,4.50
2023-10-18T13:54:29.574Z,6.00
2023-10-18T13:56:56.312Z,5.10
2023-10-18T13:59:23.040Z,5.50
2023-10-18T14:01:49.869Z,4.10
2023-10-18T14:04:17.473Z,6.70
2023-10-18T14:06:54.319Z,4.90
2023-10-18T14:09:23.126Z,6.10
2023-10-18T14:11:50.165Z,7.00
2023-10-18T14:14:16.847Z,7.90
2023-10-18T14:16:43.736Z,4.80
2023-10-18T14:19:10.644Z,6.40
2023-10-18T14:21:37.226Z,5.90
2023-10-18T14:24:04.446Z,11.80
2023-10-18T14:26:31.233Z,5.60
2023-10-18T14:28:57.988Z,7.50
2023-10-18T14:31:24.943Z,5.70
2023-10-18T14:34:02.983Z,5.20
2023-10-18T14:36:30.796Z,5.20
2023-10-18T14:38:57.640Z,7.40
2023-10-18T14:41:32.496Z,6.80
2023-10-18T14:44:01.522Z,7.50
2023-10-18T14:46:29.034Z,6.40
2023-10-18T14:48:55.782Z,7.80
2023-10-18T14:51:22.638Z,8.70
2023-10-18T14:53:49.814Z,8.80
2023-10-18T14:56:16.570Z,5.70
2023-10-18T14:58:47.395Z,7.10
2023-10-18T15:01:15.122Z,8.30
2023-10-18T15:03:43.210Z,7.70
2023-10-18T15:06:10.921Z,8.90
2023-10-18T15:08:37.770Z,47.00
2023-10-18T15:11:18.608Z,40.00
2023-10-18T15:13:46.863Z,18.00
2023-10-18T15:16:14.946Z,17.30
2023-10-18T15:18:42.027Z,27.60
2023-10-18T15:21:09.334Z,35.40
2023-10-18T15:23:35.989Z,34.80
2023-10-18T15:26:06.895Z,30.30
2023-10-18T15:28:34.705Z,56.60
2023-10-18T15:31:11.727Z,33.40
2023-10-18T15:33:43.779Z,35.30
2023-10-18T15:36:24.413Z,32.80
2023-10-18T15:38:52.738Z,40.80
2023-10-18T15:41:20.355Z,56.80
2023-10-18T15:43:48.996Z,77.00
2023-10-18T15:46:17.476Z,242.50
2023-10-18T15:48:48.532Z,126.10
2023-10-18T15:51:16.217Z,51.80
2023-10-18T15:53:55.613Z,76.80
2023-10-18T15:56:25.002Z,95.40
2023-10-18T15:58:52.956Z,97.20
2023-10-18T16:01:20.000Z,94.50
2023-10-18T16:03:48.031Z,82.90
2023-10-18T16:06:16.308Z,76.20
2023-10-18T16:08:44.940Z,79.80
2023-10-18T16:11:12.048Z,102.50
2023-10-18T16:13:38.748Z,109.00
2023-10-18T16:16:08.013Z,69.40
2023-10-18T16:18:35.118Z,63.70
2023-10-18T16:21:02.000Z,75.80
2023-10-18T16:23:28.674Z,72.20
2023-10-18T16:25:55.683Z,84.90
2023-10-18T16:28:22.740Z,141.30
2023-10-18T16:30:49.421Z,69.50
2023-10-18T16:33:16.203Z,116.20
2023-10-18T16:35:43.477Z,165.30
2023-10-18T16:38:10.371Z,162.70
2023-10-18T16:40:37.505Z,156.60
2023-10-18T16:43:04.547Z,99.80
2023-10-18T16:45:31.315Z,163.90
2023-10-18T16:47:58.995Z,133.60
2023-10-18T16:50:25.838Z,115.80
2023-10-18T16:52:52.579Z,136.40
2023-10-18T16:55:19.966Z,105.20
2023-10-18T16:57:46.684Z,101.90
2023-10-18T17:00:13.884Z,102.60
2023-10-18T17:02:41.028Z,102.90
2023-10-18T17:05:08.996Z,155.10
2023-10-18T17:07:35.708Z,114.20
2023-10-18T17:10:02.572Z,146.20
2023-10-18T17:12:29.305Z,130.30
2023-10-18T17:14:55.951Z,217.50
2023-10-18T17:17:23.062Z,268.00
2023-10-18T17:19:49.861Z,149.20
2023-10-18T17:22:16.505Z,371.20
2023-10-18T17:24:43.270Z,458.50
2023-10-18T17:27:10.234Z,174.80
2023-10-18T17:29:36.896Z,325.90
2023-10-18T17:32:07.618Z,616.10
2023-10-18T17:34:34.338Z,418.20
2023-10-18T17:37:01.027Z,351.30
2023-10-18T17:39:27.854Z,276.50
2023-10-18T17:41:54.696Z,222.80
2023-10-18T17:44:21.594Z,216.00
2023-10-18T17:46:48.434Z,199.30
2023-10-18T17:49:15.342Z,290.10
2023-10-18T17:51:41.991Z,225.80
2023-10-18T17:54:08.726Z,137.20
2023-10-18T17:56:36.413Z,158.90
2023-10-18T17:59:03.365Z,180.40
2023-10-18T18:01:30.113Z,313.10
2023-10-18T18:03:56.869Z,191.60
2023-10-18T18:06:24.117Z,376.60
2023-10-18T18:08:50.981Z,370.30
2023-10-18T18:11:30.975Z,250.10
2023-10-18T18:13:58.703Z,489.90
2023-10-18T18:16:26.274Z,374.00
2023-10-18T18:18:53.124Z,233.70
2023-10-18T18:21:20.001Z,201.30
2023-10-18T18:23:46.746Z,270.00
2023-10-18T18:26:13.533Z,224.40
2023-10-18T18:28:40.359Z,131.70
2023-10-18T18:31:07.119Z,144.90
2023-10-18T18:33:34.334Z,128.60
2023-10-18T18:36:01.103Z,158.90
2023-10-18T18:38:28.174Z,155.60
2023-10-18T18:40:54.870Z,192.60
2023-10-18T18:43:21.730Z,191.40
2023-10-18T18:45:48.572Z,148.20
2023-10-18T18:48:15.288Z,150.70
2023-10-18T18:50:42.247Z,159.00
2023-10-18T18:53:09.043Z,160.10
2023-10-18T18:55:35.770Z,144.60
2023-10-18T18:58:02.526Z,177.90
2023-10-18T19:00:29.303Z,175.00
2023-10-18T19:02:57.823Z,189.20
2023-10-18T19:05:24.981Z,173.00
2023-10-18T19:07:53.470Z,186.40
2023-10-18T19:10:20.344Z,160.90
2023-10-18T19:12:49.443Z,198.30
2023-10-18T19:15:22.652Z,197.00
2023-10-18T19:17:51.677Z,152.80
2023-10-18T19:20:20.073Z,139.10
2023-10-18T19:22:49.084Z,137.20
2023-10-18T19:25:16.405Z,160.90
2023-10-18T19:27:43.964Z,170.60
2023-10-18T19:30:11.150Z,164.80
2023-10-18T19:32:38.211Z,146.00
2023-10-18T19:35:06.476Z,156.70
2023-10-18T19:37:33.208Z,161.20
2023-10-18T19:39:59.869Z,179.10
2023-10-18T19:42:26.503Z,180.80
2023-10-18T19:44:53.141Z,180.90
2023-10-18T19:47:19.934Z,208.10
2023-10-18T19:49:47.036Z,240.10
2023-10-18T19:52:13.684Z,263.60
2023-10-18T19:54:40.347Z,257.50
2023-10-18T19:57:07.184Z,235.00
2023-10-18T19:59:34.092Z,228.10
2023-10-18T20:02:01.270Z,203.40
2023-10-18T20:04:27.939Z,196.80
2023-10-18T20:06:54.992Z,189.90
2023-10-18T20:09:21.843Z,173.60
2023-10-18T20:11:48.493Z,180.50
2023-10-18T20:14:15.242Z,178.60
2023-10-18T20:16:42.213Z,178.90
2023-10-18T20:19:09.039Z,173.80
2023-10-18T20:21:36.009Z,199.30
2023-10-18T20:24:03.651Z,200.10
2023-10-18T20:26:30.437Z,194.90
2023-10-18T20:28:57.659Z,189.20
2023-10-18T20:31:25.808Z,191.30
2023-10-18T20:33:53.428Z,194.40
2023-10-18T20:36:20.159Z,209.00
2023-10-18T20:38:46.903Z,201.30
2023-10-18T20:41:13.558Z,184.40
2023-10-18T20:43:40.298Z,178.70
2023-10-18T20:46:08.902Z,174.00
2023-10-18T20:48:35.562Z,181.20
2023-10-18T20:51:02.174Z,176.80
2023-10-18T20:53:28.878Z,171.30
2023-10-18T20:55:55.559Z,159.70
2023-10-18T20:58:22.232Z,161.30
2023-10-18T21:00:49.058Z,164.50
2023-10-18T21:03:16.006Z,162.50
2023-10-18T21:05:42.795Z,152.30
2023-10-18T21:08:09.923Z,154.30
2023-10-18T21:10:36.596Z,182.40
2023-10-18T21:13:03.330Z,165.90
2023-10-18T21:15:32.247Z,167.90
2023-10-18T21:17:59.707Z,168.30
2023-10-18T21:20:26.757Z,171.20
2023-10-18T21:22:54.980Z,174.70
2023-10-18T21:25:22.754Z,150.50
2023-10-18T21:27:49.871Z,164.30
2023-10-18T21:30:18.785Z,155.70
2023-10-18T21:32:47.454Z,162.20
2023-10-18T21:35:16.069Z,155.50
2023-10-18T21:37:44.611Z,147.60
2023-10-18T21:40:13.421Z,145.20
2023-10-18T21:42:41.096Z,154.70
2023-10-18T21:45:12.641Z,216.70
2023-10-18T21:47:39.533Z,205.90
2023-10-18T21:50:07.281Z,197.70
2023-10-18T21:52:35.696Z,167.10
2023-10-18T21:55:03.343Z,155.10
2023-10-18T21:57:30.020Z,157.10
2023-10-18T21:59:57.065Z,155.80
2023-10-18T22:02:27.709Z,156.40
2023-10-18T22:04:54.735Z,142.30
2023-10-18T22:07:21.592Z,131.20
2023-10-18T22:09:48.327Z,143.30
2023-10-18T22:12:14.973Z,140.20
2023-10-18T22:14:41.624Z,137.00
2023-10-18T22:17:08.307Z,148.70
2023-10-18T22:19:35.265Z,152.80
2023-10-18T22:22:02.193Z,147.50
2023-10-18T22:24:29.502Z,140.30
2023-10-18T22:26:56.404Z,142.10
2023-10-18T22:29:23.156Z,144.90
2023-10-18T22:31:54.586Z,135.30
2023-10-18T22:34:26.695Z,138.90
2023-10-18T22:36:53.732Z,125.10
2023-10-18T22:39:20.480Z,125.00
2023-10-18T22:41:47.548Z,117.50
2023-10-18T22:44:17.875Z,125.80
2023-10-18T22:46:45.295Z,120.10
2023-10-18T22:49:12.117Z,119.30
2023-10-18T22:51:39.033Z,116.50
2023-10-18T22:54:05.783Z,124.50
2023-10-18T22:56:32.838Z,132.60
2023-10-18T22:58:59.586Z,124.40
2023-10-18T23:01:27.354Z,111.10
2023-10-18T23:03:56.409Z,108.40
2023-10-18T23:06:23.520Z,112.80
2023-10-18T23:08:53.246Z,110.90
2023-10-18T23:11:20.506Z,129.40
2023-10-18T23:13:47.598Z,121.00
2023-10-18T23:16:21.602Z,122.30
2023-10-18T23:18:48.340Z,124.60
2023-10-18T23:21:15.460Z,119.10
2023-10-18T23:23:43.685Z,117.80
2023-10-18T23:26:11.554Z,117.70
2023-10-18T23:28:38.229Z,117.40
2023-10-18T23:31:05.309Z,108.40
2023-10-18T23:33:32.021Z,112.20
2023-10-18T23:35:59.180Z,117.60
2023-10-18T23:38:26.130Z,110.20
2023-10-18T23:40:52.817Z,117.70
2023-10-18T23:43:23.248Z,107.20
2023-10-18T23:45:50.941Z,85.70
2023-10-18T23:48:17.971Z,108.70
2023-10-18T23:50:44.783Z,96.10
2023-10-18T23:53:11.883Z,107.70
2023-10-18T23:55:40.156Z,96.80
2023-10-18T23:58:11.963Z,98.60
